Time;durP1;ratioP1;P1;durP2;ratioP2;P2;SDS_P1;SDS_P2;PMS_P1;PMS_P2;Temp;Humidity;BMP_temperature;BMP_pressure;BME280_temperature;BME280_humidity;BME280_pressure;Samples;Min_cycle;Max_cycle;Signal;HPM_P1;HPM_P2
2021/12/09 00:00:21;;;;;;;4.90;2.42;;;2.90;94.40;;;;;;2075063;28;20030;-93
2021/12/09 00:01:25;;;;;;;4.55;2.40;;;2.90;94.40;;;;;;2086665;28;20084;-93
2021/12/09 00:02:27;;;;;;;6.05;2.30;;;2.90;94.40;;;;;;2088981;28;20024;-91
2021/12/09 00:03:32;;;;;;;6.57;2.60;;;2.90;94.40;;;;;;2074084;28;20041;-92
2021/12/09 00:04:32;;;;;;;4.90;2.38;;;2.90;94.40;;;;;;2078905;28;20022;-92
2021/12/09 00:05:35;;;;;;;5.95;2.63;;;2.90;94.40;;;;;;2076658;28;20056;-92
2021/12/09 00:06:37;;;;;;;4.93;2.30;;;2.90;94.40;;;;;;2073525;28;20064;-92
2021/12/09 00:07:37;;;;;;;3.97;2.20;;;2.90;94.40;;;;;;2078200;28;20026;-91
2021/12/09 00:08:41;;;;;;;4.97;2.28;;;2.90;94.40;;;;;;2080887;28;20040;-91
2021/12/09 00:09:42;;;;;;;6.28;2.40;;;2.90;94.40;;;;;;2078672;28;20029;-92
2021/12/09 00:10:42;;;;;;;3.88;2.15;;;2.90;94.40;;;;;;2080281;28;20034;-91
2021/12/09 00:11:45;;;;;;;4.15;2.15;;;2.80;94.40;;;;;;2061908;28;20054;-92
2021/12/09 00:12:46;;;;;;;4.32;2.38;;;2.80;94.40;;;;;;2067371;28;20477;-91
2021/12/09 00:13:47;;;;;;;3.33;2.25;;;2.80;94.40;;;;;;2089818;28;20170;-92
2021/12/09 00:14:47;;;;;;;5.78;2.47;;;2.80;94.50;;;;;;2088754;28;20024;-92
2021/12/09 00:15:49;;;;;;;4.13;2.20;;;2.80;94.40;;;;;;2081978;28;20487;-92
2021/12/09 00:16:50;;;;;;;4.55;2.05;;;2.80;94.40;;;;;;2079720;28;20034;-92
2021/12/09 00:17:51;;;;;;;5.10;2.20;;;2.80;94.40;;;;;;2064074;28;20237;-93
2021/12/09 00:18:52;;;;;;;5.45;2.20;;;2.80;94.40;;;;;;2072368;28;20052;-93
2021/12/09 00:19:52;;;;;;;4.10;2.25;;;2.80;94.40;;;;;;2081518;28;20108;-92
2021/12/09 00:20:53;;;;;;;5.70;2.33;;;2.80;94.50;;;;;;2078306;28;20080;-93
2021/12/09 00:21:54;;;;;;;4.85;2.30;;;2.80;94.40;;;;;;2072633;28;20026;-92
2021/12/09 00:22:54;;;;;;;3.80;2.05;;;2.80;94.40;;;;;;2063675;28;20038;-91
2021/12/09 00:23:55;;;;;;;3.83;1.90;;;2.80;94.50;;;;;;2061413;28;20039;-92
2021/12/09 00:24:56;;;;;;;4.97;2.30;;;2.80;94.50;;;;;;2068717;28;20031;-92
2021/12/09 00:25:56;;;;;;;3.95;2.28;;;2.80;94.50;;;;;;2081238;28;20062;-92
2021/12/09 00:26:57;;;;;;;5.00;2.50;;;2.80;94.50;;;;;;2094371;28;20045;-91
2021/12/09 00:27:58;;;;;;;3.65;2.10;;;2.80;94.50;;;;;;2082151;28;20108;-92
2021/12/09 00:28:59;;;;;;;4.70;2.45;;;2.80;94.50;;;;;;2080569;28;20057;-88
2021/12/09 00:29:59;;;;;;;4.35;2.20;;;2.80;94.50;;;;;;2097517;28;20017;-89
2021/12/09 00:31:00;;;;;;;4.75;2.20;;;2.80;94.50;;;;;;2083141;28;20030;-91
2021/12/09 00:32:00;;;;;;;3.90;2.13;;;2.80;94.50;;;;;;2075780;28;20034;-91
2021/12/09 00:33:04;;;;;;;5.80;2.42;;;2.80;94.50;;;;;;2065807;28;20465;-92
2021/12/09 00:34:05;;;;;;;4.90;2.30;;;2.80;94.50;;;;;;2081819;28;20029;-92
2021/12/09 00:35:08;;;;;;;5.38;2.47;;;2.80;94.50;;;;;;2081739;28;20033;-92
2021/12/09 00:36:09;;;;;;;4.57;2.45;;;2.80;94.50;;;;;;2073401;28;20083;-91
2021/12/09 00:37:33;;;;;;;5.05;2.33;;;2.70;94.50;;;;;;2081073;28;20057;-92
2021/12/09 00:38:36;;;;;;;4.82;2.40;;;2.70;94.50;;;;;;2088404;28;20039;-93
2021/12/09 00:39:36;;;;;;;6.35;1.77;;;2.80;94.50;;;;;;2090041;28;20035;-93
2021/12/09 00:40:37;;;;;;;5.82;2.30;;;2.80;94.50;;;;;;2083646;28;20056;-93
2021/12/09 00:41:38;;;;;;;4.13;2.40;;;2.70;94.50;;;;;;2066006;28;20074;-92
2021/12/09 00:42:39;;;;;;;4.78;2.20;;;2.70;94.50;;;;;;2061566;28;20421;-93
2021/12/09 00:43:41;;;;;;;5.68;2.50;;;2.80;94.50;;;;;;2056552;28;20163;-92
2021/12/09 00:44:42;;;;;;;4.38;2.13;;;2.70;94.50;;;;;;2072955;28;20013;-92
2021/12/09 00:45:43;;;;;;;4.70;2.25;;;2.70;94.50;;;;;;2076593;28;20496;-92
2021/12/09 00:46:44;;;;;;;5.57;2.25;;;2.70;94.50;;;;;;2068032;28;20129;-92
2021/12/09 00:47:45;;;;;;;4.65;2.30;;;2.70;94.50;;;;;;2058129;28;20030;-92
2021/12/09 00:48:45;;;;;;;6.70;2.50;;;2.70;94.50;;;;;;2064153;28;20030;-92
2021/12/09 00:49:46;;;;;;;4.20;2.42;;;2.70;94.50;;;;;;2080834;28;20021;-93
2021/12/09 00:50:47;;;;;;;4.57;2.20;;;2.70;94.50;;;;;;2091100;28;20037;-93
2021/12/09 00:51:48;;;;;;;3.80;2.08;;;2.70;94.50;;;;;;2080376;28;20032;-93
2021/12/09 00:52:49;;;;;;;5.68;2.35;;;2.70;94.50;;;;;;2073343;28;20022;-93
2021/12/09 00:53:50;;;;;;;4.10;2.63;;;2.70;94.50;;;;;;2069212;28;20385;-92
2021/12/09 00:54:56;;;;;;;3.85;2.15;;;2.70;94.50;;;;;;2061906;28;20046;-92
2021/12/09 00:55:58;;;;;;;4.07;2.20;;;2.70;94.50;;;;;;2065361;28;20022;-93
2021/12/09 00:56:59;;;;;;;4.07;2.55;;;2.60;94.50;;;;;;2072069;28;20104;-92
2021/12/09 00:57:59;;;;;;;7.07;2.50;;;2.70;94.50;;;;;;2084498;28;20120;-92
2021/12/09 00:59:00;;;;;;;4.40;2.25;;;2.70;94.50;;;;;;2090506;28;20475;-92
2021/12/09 01:00:05;;;;;;;4.38;2.60;;;2.70;94.50;;;;;;2079903;28;20064;-92
2021/12/09 01:01:07;;;;;;;5.35;2.30;;;2.70;94.50;;;;;;2072699;28;20089;-93
2021/12/09 01:02:10;;;;;;;5.18;2.20;;;2.60;94.50;;;;;;2080097;28;20025;-92
2021/12/09 01:03:10;;;;;;;6.28;2.30;;;2.70;94.50;;;;;;2080539;28;20084;-92
2021/12/09 01:04:11;;;;;;;4.15;2.10;;;2.70;94.50;;;;;;2079361;28;20072;-93
2021/12/09 01:05:13;;;;;;;5.13;2.25;;;2.70;94.50;;;;;;2089548;28;20108;-92
2021/12/09 01:06:13;;;;;;;4.35;2.20;;;2.70;94.80;;;;;;2071916;28;20033;-91
2021/12/09 01:07:14;;;;;;;6.10;2.85;;;2.60;94.50;;;;;;2065408;28;20456;-92
2021/12/09 01:08:16;;;;;;;3.55;2.20;;;2.60;94.50;;;;;;2073357;28;20558;-93
2021/12/09 01:09:17;;;;;;;4.38;2.10;;;2.60;94.50;;;;;;2080445;28;20037;-92
2021/12/09 01:10:18;;;;;;;4.50;2.17;;;2.60;94.60;;;;;;2081573;28;20183;-92
2021/12/09 01:11:19;;;;;;;3.67;2.10;;;2.60;94.60;;;;;;2080182;28;20033;-94
2021/12/09 01:12:19;;;;;;;4.00;2.00;;;2.60;94.60;;;;;;2089362;28;20092;-92
2021/12/09 01:13:20;;;;;;;4.65;2.28;;;2.70;94.60;;;;;;2080368;28;20026;-93
2021/12/09 01:14:21;;;;;;;5.65;2.20;;;2.60;94.60;;;;;;2072874;28;20096;-93
2021/12/09 01:15:22;;;;;;;5.15;2.40;;;2.60;94.60;;;;;;2077129;28;20083;-93
2021/12/09 01:16:23;;;;;;;3.88;2.03;;;2.60;94.60;;;;;;2065288;28;20448;-92
2021/12/09 01:17:25;;;;;;;4.63;2.10;;;2.60;94.60;;;;;;2064980;28;20018;-92
2021/12/09 01:18:25;;;;;;;3.72;2.20;;;2.60;94.60;;;;;;2073259;28;20375;-92
2021/12/09 01:19:26;;;;;;;5.03;2.40;;;2.70;94.60;;;;;;2056313;28;20035;-92
2021/12/09 01:20:27;;;;;;;3.53;2.25;;;2.60;94.60;;;;;;2056710;28;20485;-93
2021/12/09 01:21:28;;;;;;;4.32;2.15;;;2.60;94.60;;;;;;2080579;28;20049;-92
2021/12/09 01:22:36;;;;;;;3.90;1.90;;;2.60;94.60;;;;;;2080033;28;20022;-92
2021/12/09 01:23:38;;;;;;;4.97;2.33;;;2.60;94.60;;;;;;2072479;28;20034;-92
2021/12/09 01:24:38;;;;;;;5.82;2.47;;;2.60;94.60;;;;;;2074507;28;20089;-92
2021/12/09 01:25:39;;;;;;;3.35;1.92;;;2.60;94.60;;;;;;2065553;28;20053;-92
2021/12/09 01:26:40;;;;;;;4.57;2.45;;;2.70;94.60;;;;;;2072443;28;20034;-93
2021/12/09 01:27:44;;;;;;;4.18;2.20;;;2.70;94.60;;;;;;2065129;28;20413;-93
2021/12/09 01:28:54;;;;;;;4.07;2.17;;;2.60;94.60;;;;;;2064796;28;20038;-92
2021/12/09 01:29:55;;;;;;;4.93;2.17;;;2.60;94.60;;;;;;2088701;28;20026;-91
2021/12/09 01:31:04;;;;;;;3.72;2.20;;;2.60;94.60;;;;;;2060372;28;20126;-92
2021/12/09 01:32:08;;;;;;;4.35;2.40;;;2.60;94.60;;;;;;2070651;28;20030;-93
2021/12/09 01:33:10;;;;;;;4.78;2.08;;;2.70;94.60;;;;;;2089498;28;20048;-92
2021/12/09 01:34:15;;;;;;;5.78;2.47;;;2.60;94.60;;;;;;2090824;28;22098;-92
2021/12/09 01:35:19;;;;;;;4.63;2.63;;;2.60;94.60;;;;;;2085528;28;20076;-92
2021/12/09 01:36:20;;;;;;;5.65;2.60;;;2.60;94.60;;;;;;2082819;28;20030;-92
2021/12/09 01:37:21;;;;;;;4.75;2.20;;;2.60;94.60;;;;;;2089370;28;20036;-93
2021/12/09 01:38:24;;;;;;;5.43;2.40;;;2.60;94.60;;;;;;2087851;28;20123;-93
2021/12/09 01:39:27;;;;;;;4.53;2.25;;;2.60;94.60;;;;;;2076102;28;20030;-92
2021/12/09 01:40:29;;;;;;;4.03;2.10;;;2.60;94.60;;;;;;2072434;28;20034;-92
2021/12/09 01:41:30;;;;;;;3.80;2.30;;;2.60;94.60;;;;;;2073428;28;20125;-92
2021/12/09 01:42:31;;;;;;;4.57;2.28;;;2.60;94.60;;;;;;2083385;28;20034;-92
2021/12/09 01:43:32;;;;;;;3.92;2.17;;;2.60;94.60;;;;;;2071983;28;20587;-92
2021/12/09 01:44:33;;;;;;;4.45;2.10;;;2.50;94.60;;;;;;2071478;28;20038;-92
2021/12/09 01:45:34;;;;;;;4.05;2.08;;;2.60;94.70;;;;;;2081334;28;20025;-93
2021/12/09 01:46:35;;;;;;;5.10;2.30;;;2.50;94.70;;;;;;2088624;28;20033;-92
2021/12/09 01:47:35;;;;;;;4.90;2.38;;;2.50;94.70;;;;;;2088056;28;20067;-92
2021/12/09 01:48:38;;;;;;;5.47;2.47;;;2.50;94.70;;;;;;2072070;28;20044;-92
2021/12/09 01:49:38;;;;;;;3.50;2.17;;;2.50;94.70;;;;;;2073477;28;20034;-92
2021/12/09 01:50:39;;;;;;;4.60;2.17;;;2.50;94.70;;;;;;2080908;28;20029;-93
2021/12/09 01:51:41;;;;;;;4.47;2.25;;;2.50;94.70;;;;;;2072185;28;20022;-92
2021/12/09 01:52:42;;;;;;;5.78;2.38;;;2.50;94.70;;;;;;2057437;28;20035;-92
2021/12/09 01:53:44;;;;;;;5.28;2.50;;;2.50;94.90;;;;;;2057063;28;20019;-91
2021/12/09 01:54:45;;;;;;;4.32;2.22;;;2.50;94.70;;;;;;2078023;28;20025;-93
2021/12/09 01:55:45;;;;;;;5.25;2.30;;;2.50;95.00;;;;;;2062713;28;20018;-93
2021/12/09 01:56:46;;;;;;;3.85;2.00;;;2.40;94.70;;;;;;2056183;28;20065;-92
2021/12/09 01:57:49;;;;;;;5.07;2.33;;;2.50;94.70;;;;;;2078477;28;20042;-92
2021/12/09 01:58:55;;;;;;;5.82;2.63;;;2.50;95.00;;;;;;2086092;28;20021;-92
2021/12/09 01:59:56;;;;;;;4.22;1.92;;;2.50;95.00;;;;;;2074104;28;20025;-92
2021/12/09 02:00:57;;;;;;;4.97;2.25;;;2.40;94.70;;;;;;2079290;28;20117;-92
2021/12/09 02:01:58;;;;;;;4.68;1.92;;;2.50;94.70;;;;;;2086957;28;20029;-93
2021/12/09 02:02:59;;;;;;;4.93;2.63;;;2.50;94.80;;;;;;2070585;28;20384;-92
2021/12/09 02:04:04;;;;;;;4.68;2.28;;;2.50;94.80;;;;;;2063713;28;20038;-92
2021/12/09 02:05:06;;;;;;;3.72;2.20;;;2.50;94.80;;;;;;2082807;28;20352;-92
2021/12/09 02:06:07;;;;;;;5.50;2.63;;;2.50;94.80;;;;;;2072668;28;20038;-92
2021/12/09 02:07:08;;;;;;;6.10;2.30;;;2.50;94.80;;;;;;2063944;28;20101;-92
2021/12/09 02:08:12;;;;;;;3.70;2.08;;;2.50;94.70;;;;;;2073222;28;20022;-93
2021/12/09 02:09:16;;;;;;;5.88;2.58;;;2.60;94.80;;;;;;2072673;28;20503;-92
2021/12/09 02:10:18;;;;;;;6.35;2.70;;;2.50;94.70;;;;;;2068681;28;20401;-92
2021/12/09 02:11:20;;;;;;;5.47;2.30;;;2.60;94.70;;;;;;2062677;28;20053;-93
2021/12/09 02:12:21;;;;;;;4.32;2.15;;;2.60;94.70;;;;;;2055553;28;20477;-92
2021/12/09 02:13:21;;;;;;;4.55;2.35;;;2.60;94.70;;;;;;2064438;28;20038;-94
2021/12/09 02:14:22;;;;;;;4.93;2.28;;;2.60;94.70;;;;;;2071280;28;20026;-92
2021/12/09 02:15:25;;;;;;;4.75;2.60;;;2.60;94.70;;;;;;2070598;28;20092;-92
2021/12/09 02:16:26;;;;;;;4.93;2.38;;;2.60;94.70;;;;;;2072974;28;20152;-92
2021/12/09 02:17:28;;;;;;;4.97;2.42;;;2.60;94.70;;;;;;2073780;28;20026;-92
2021/12/09 02:18:30;;;;;;;4.95;2.60;;;2.60;94.70;;;;;;2075217;28;20025;-93
2021/12/09 02:19:30;;;;;;;5.03;2.35;;;2.60;94.70;;;;;;2076941;28;20085;-92
2021/12/09 02:20:34;;;;;;;6.03;2.35;;;2.60;94.70;;;;;;2077788;28;20045;-92
2021/12/09 02:21:35;;;;;;;5.60;2.28;;;2.60;94.70;;;;;;2082393;28;20006;-85
2021/12/09 02:22:36;;;;;;;4.00;2.05;;;2.60;94.70;;;;;;2082967;28;20041;-86
2021/12/09 02:23:41;;;;;;;4.57;2.25;;;2.60;94.70;;;;;;2083485;28;20042;-79
2021/12/09 02:24:41;;;;;;;4.32;2.42;;;2.60;94.70;;;;;;2082034;28;20028;-87
2021/12/09 02:25:44;;;;;;;5.53;2.47;;;2.60;94.70;;;;;;2082862;28;20034;-89
2021/12/09 02:26:49;;;;;;;4.63;2.33;;;2.60;94.70;;;;;;2075685;28;20081;-89
2021/12/09 02:27:50;;;;;;;4.40;2.22;;;2.60;94.70;;;;;;2081270;28;20038;-92
2021/12/09 02:28:53;;;;;;;3.63;2.20;;;2.60;94.70;;;;;;2072009;28;20030;-92
2021/12/09 02:29:55;;;;;;;4.85;2.40;;;2.60;94.70;;;;;;2067349;28;20033;-93
2021/12/09 02:30:56;;;;;;;3.78;2.17;;;2.60;94.80;;;;;;2073165;28;20040;-93
2021/12/09 02:31:58;;;;;;;4.45;2.30;;;2.50;94.70;;;;;;2071471;28;20095;-92
2021/12/09 02:32:58;;;;;;;4.78;2.50;;;2.50;95.00;;;;;;2071407;28;20084;-92
2021/12/09 02:34:00;;;;;;;5.07;2.25;;;2.50;94.70;;;;;;2071576;28;20029;-92
2021/12/09 02:35:01;;;;;;;3.53;2.22;;;2.50;94.70;;;;;;2063382;28;20171;-91
2021/12/09 02:36:03;;;;;;;4.97;2.30;;;2.50;94.80;;;;;;2064138;28;20528;-91
2021/12/09 02:37:04;;;;;;;4.40;2.25;;;2.50;94.80;;;;;;2066382;28;20437;-92
2021/12/09 02:38:07;;;;;;;5.35;2.72;;;2.60;94.80;;;;;;2067044;28;20080;-92
2021/12/09 02:39:10;;;;;;;5.47;2.58;;;2.50;94.70;;;;;;2073082;28;20033;-93
2021/12/09 02:40:12;;;;;;;5.28;2.50;;;2.50;94.70;;;;;;2072429;28;20025;-92
2021/12/09 02:41:17;;;;;;;4.80;2.25;;;2.50;94.70;;;;;;2070934;28;20030;-92
2021/12/09 02:42:18;;;;;;;4.90;2.28;;;2.50;94.80;;;;;;2070834;28;20396;-93
2021/12/09 02:43:29;;;;;;;4.82;2.28;;;2.50;94.70;;;;;;2069204;28;20049;-92
2021/12/09 02:44:30;;;;;;;4.57;2.20;;;2.50;94.70;;;;;;2072139;28;20049;-93
2021/12/09 02:45:31;;;;;;;7.30;2.63;;;2.50;94.70;;;;;;2062739;28;20042;-92
2021/12/09 02:46:36;;;;;;;4.78;2.40;;;2.50;94.70;;;;;;2069988;28;20049;-92
2021/12/09 02:47:37;;;;;;;4.65;2.50;;;2.50;94.70;;;;;;2071915;28;20022;-92
2021/12/09 02:48:38;;;;;;;4.30;2.38;;;2.50;94.70;;;;;;2066649;28;20362;-93
2021/12/09 02:49:38;;;;;;;4.32;2.10;;;2.50;94.80;;;;;;2064681;28;20029;-92
2021/12/09 02:50:39;;;;;;;4.50;2.17;;;2.50;94.80;;;;;;2057472;28;20493;-93
2021/12/09 02:51:41;;;;;;;4.90;2.40;;;2.50;94.80;;;;;;2071371;28;20041;-92
2021/12/09 02:52:41;;;;;;;4.53;2.38;;;2.50;94.80;;;;;;2066880;28;20168;-93
2021/12/09 02:53:42;;;;;;;5.13;2.22;;;2.50;94.80;;;;;;2064303;28;20027;-93
2021/12/09 02:54:43;;;;;;;4.57;2.20;;;2.50;94.70;;;;;;2064359;28;20030;-90
2021/12/09 02:55:44;;;;;;;5.88;2.45;;;2.50;94.70;;;;;;2074229;28;20033;-93
2021/12/09 02:56:48;;;;;;;5.53;2.58;;;2.50;94.80;;;;;;2072593;28;20030;-92
2021/12/09 02:57:52;;;;;;;4.70;2.28;;;2.40;94.70;;;;;;2064060;28;20441;-92
2021/12/09 02:58:53;;;;;;;5.22;2.42;;;2.40;94.80;;;;;;2063448;28;20034;-93
2021/12/09 02:59:54;;;;;;;4.40;2.30;;;2.40;94.80;;;;;;2071447;28;20034;-92
2021/12/09 03:01:13;;;;;;;5.85;2.63;;;2.40;94.80;;;;;;2073545;28;20072;-92
2021/12/09 03:02:14;;;;;;;4.10;2.22;;;2.40;94.80;;;;;;2072030;28;20076;-92
2021/12/09 03:03:14;;;;;;;4.93;2.70;;;2.40;94.80;;;;;;2069935;28;20440;-93
2021/12/09 03:04:16;;;;;;;5.50;2.60;;;2.40;94.80;;;;;;2072573;28;20026;-91
2021/12/09 03:05:17;;;;;;;5.38;2.45;;;2.40;94.80;;;;;;2073616;28;20064;-92
2021/12/09 03:06:20;;;;;;;4.32;2.40;;;2.40;94.80;;;;;;2073006;28;20030;-93
2021/12/09 03:07:26;;;;;;;4.35;2.30;;;2.40;94.80;;;;;;2072337;28;20077;-92
2021/12/09 03:08:37;;;;;;;5.60;2.60;;;2.40;94.80;;;;;;2073866;28;20377;-92
2021/12/09 03:09:48;;;;;;;5.43;2.40;;;2.40;94.80;;;;;;2073179;28;20026;-92
2021/12/09 03:10:49;;;;;;;5.28;2.30;;;2.40;94.80;;;;;;2068564;28;20053;-92
2021/12/09 03:11:54;;;;;;;5.60;2.38;;;2.40;94.80;;;;;;2078293;28;20554;-92
2021/12/09 03:12:57;;;;;;;5.78;2.63;;;2.40;94.80;;;;;;2091222;28;20035;-92
2021/12/09 03:13:59;;;;;;;7.22;2.67;;;2.40;94.80;;;;;;2086986;28;20487;-93
2021/12/09 03:15:02;;;;;;;4.75;2.63;;;2.30;94.80;;;;;;2089078;28;20521;-92
2021/12/09 03:16:04;;;;;;;6.25;2.75;;;2.30;94.80;;;;;;2085217;28;20053;-92
2021/12/09 03:17:04;;;;;;;4.88;2.33;;;2.30;94.80;;;;;;2080584;28;20395;-92
2021/12/09 03:18:05;;;;;;;5.05;2.60;;;2.30;94.80;;;;;;2080880;28;22750;-92
2021/12/09 03:19:07;;;;;;;5.22;2.63;;;2.30;94.80;;;;;;2078269;28;20112;-92
2021/12/09 03:20:10;;;;;;;4.57;2.40;;;2.30;94.80;;;;;;2078505;28;20084;-92
2021/12/09 03:21:19;;;;;;;4.25;2.50;;;2.30;94.80;;;;;;2087840;28;20476;-93
2021/12/09 03:22:20;;;;;;;5.00;2.50;;;2.30;94.80;;;;;;2089486;28;20067;-92
2021/12/09 03:23:22;;;;;;;5.68;2.70;;;2.30;94.80;;;;;;2090965;28;20056;-92
2021/12/09 03:24:22;;;;;;;5.03;2.47;;;2.30;94.80;;;;;;2087313;28;20044;-92
2021/12/09 03:25:24;;;;;;;4.72;2.28;;;2.30;94.80;;;;;;2081687;28;20052;-92
2021/12/09 03:26:29;;;;;;;6.07;2.95;;;2.30;94.80;;;;;;2087796;28;20033;-93
2021/12/09 03:27:30;;;;;;;5.53;2.63;;;2.30;94.90;;;;;;2081371;28;20026;-92
2021/12/09 03:28:30;;;;;;;5.18;2.28;;;2.30;94.90;;;;;;2080093;28;20018;-92
2021/12/09 03:29:31;;;;;;;5.90;2.38;;;2.30;94.90;;;;;;2089770;28;20045;-92
2021/12/09 03:30:32;;;;;;;5.57;2.70;;;2.20;94.80;;;;;;2080684;28;20087;-92
2021/12/09 03:31:33;;;;;;;4.35;2.28;;;2.30;94.90;;;;;;2080386;28;20030;-92
2021/12/09 03:32:34;;;;;;;5.38;2.50;;;2.30;94.90;;;;;;2089965;28;20443;-92
2021/12/09 03:33:35;;;;;;;5.15;2.45;;;2.20;94.80;;;;;;2088491;28;20025;-92
2021/12/09 03:34:38;;;;;;;4.57;2.28;;;2.20;94.80;;;;;;2073227;28;20045;-92
2021/12/09 03:35:39;;;;;;;4.15;2.20;;;2.20;94.80;;;;;;2069705;28;20412;-92
2021/12/09 03:36:41;;;;;;;4.93;2.30;;;2.20;94.90;;;;;;2070838;28;20034;-92
2021/12/09 03:37:42;;;;;;;6.18;2.78;;;2.20;94.90;;;;;;2074113;28;20026;-92
2021/12/09 03:38:43;;;;;;;4.45;2.35;;;2.20;94.90;;;;;;2082386;28;20480;-93
2021/12/09 03:39:44;;;;;;;4.40;2.45;;;2.20;94.90;;;;;;2080204;28;20133;-92
2021/12/09 03:40:45;;;;;;;4.55;2.40;;;2.20;94.90;;;;;;2086936;28;20030;-92
2021/12/09 03:41:48;;;;;;;5.30;2.55;;;2.10;94.90;;;;;;2078890;28;20044;-91
2021/12/09 03:42:49;;;;;;;5.03;2.70;;;2.10;94.90;;;;;;2077519;28;20072;-91
2021/12/09 03:43:50;;;;;;;5.22;2.50;;;2.10;94.90;;;;;;2080747;28;20508;-92
2021/12/09 03:44:51;;;;;;;5.80;2.58;;;2.10;94.90;;;;;;2071119;28;20113;-92
2021/12/09 03:45:55;;;;;;;6.60;2.85;;;2.10;94.90;;;;;;2062369;28;20082;-91
2021/12/09 03:46:59;;;;;;;4.38;2.35;;;2.10;94.90;;;;;;2063720;28;20069;-92
2021/12/09 03:47:59;;;;;;;4.40;2.45;;;2.10;94.90;;;;;;2073391;28;20026;-92
2021/12/09 03:49:01;;;;;;;6.03;2.65;;;2.10;94.90;;;;;;2081334;28;20056;-92
2021/12/09 03:50:05;;;;;;;5.00;2.70;;;2.10;95.00;;;;;;2072626;28;20064;-92
2021/12/09 03:51:06;;;;;;;3.95;2.42;;;2.10;94.90;;;;;;2061805;28;20034;-92
2021/12/09 03:52:06;;;;;;;5.82;2.67;;;2.10;95.00;;;;;;2062858;28;20460;-92
2021/12/09 03:53:07;;;;;;;5.88;2.83;;;2.10;95.00;;;;;;2064895;28;20504;-92
2021/12/09 03:54:09;;;;;;;5.97;2.90;;;2.10;95.00;;;;;;2058266;28;20098;-92
2021/12/09 03:55:10;;;;;;;5.30;2.55;;;2.10;95.00;;;;;;2066219;28;20063;-92
2021/12/09 03:56:11;;;;;;;4.78;2.67;;;2.00;95.00;;;;;;2081968;28;20021;-91
2021/12/09 03:57:12;;;;;;;4.88;2.60;;;2.00;94.90;;;;;;2079557;28;20396;-91
2021/12/09 03:58:14;;;;;;;6.47;3.08;;;2.00;95.00;;;;;;2087008;28;20026;-92
2021/12/09 03:59:14;;;;;;;4.85;2.60;;;2.00;95.00;;;;;;2072782;28;20029;-93
2021/12/09 04:00:15;;;;;;;5.38;2.78;;;2.00;95.00;;;;;;2072584;28;20392;-92
2021/12/09 04:01:16;;;;;;;5.03;2.45;;;2.00;95.00;;;;;;2077101;28;20100;-93
2021/12/09 04:02:17;;;;;;;7.05;3.10;;;2.00;95.00;;;;;;2077022;28;20045;-92
2021/12/09 04:03:18;;;;;;;5.20;2.70;;;2.00;95.00;;;;;;2079976;28;20025;-91
2021/12/09 04:04:19;;;;;;;5.47;2.67;;;2.00;95.00;;;;;;2079636;28;20648;-92
2021/12/09 04:05:20;;;;;;;5.30;2.88;;;2.00;95.00;;;;;;2065876;28;20077;-92
2021/12/09 04:06:21;;;;;;;5.43;2.85;;;2.00;95.00;;;;;;2074705;28;20034;-93
2021/12/09 04:07:21;;;;;;;6.03;2.63;;;1.90;95.00;;;;;;2073209;28;20090;-92
2021/12/09 04:08:22;;;;;;;5.00;2.65;;;2.00;95.00;;;;;;2083780;28;20052;-92
2021/12/09 04:09:23;;;;;;;5.60;2.58;;;2.00;95.10;;;;;;2080619;28;20123;-92
2021/12/09 04:10:24;;;;;;;4.45;2.65;;;1.90;95.00;;;;;;2085789;28;20467;-91
2021/12/09 04:11:25;;;;;;;5.63;2.60;;;2.00;95.00;;;;;;2083862;28;20055;-92
2021/12/09 04:12:25;;;;;;;5.03;2.80;;;2.00;95.00;;;;;;2074939;28;20508;-92
2021/12/09 04:13:28;;;;;;;5.90;2.80;;;1.90;95.00;;;;;;2081304;28;20054;-92
2021/12/09 04:14:30;;;;;;;4.43;2.50;;;1.90;95.00;;;;;;2084842;28;20018;-92
2021/12/09 04:15:31;;;;;;;7.20;2.78;;;1.90;95.10;;;;;;2068991;28;20034;-92
2021/12/09 04:16:32;;;;;;;5.40;2.70;;;1.90;95.10;;;;;;2070507;28;20045;-93
2021/12/09 04:17:33;;;;;;;5.60;3.00;;;1.90;95.10;;;;;;2090600;28;20013;-82
2021/12/09 04:18:35;;;;;;;6.72;2.83;;;1.90;95.10;;;;;;2099194;28;20029;-90
2021/12/09 04:19:36;;;;;;;5.00;2.83;;;1.90;95.10;;;;;;2096568;28;20013;-91
2021/12/09 04:20:37;;;;;;;5.70;2.78;;;1.90;95.00;;;;;;2093223;28;20013;-80
2021/12/09 04:21:39;;;;;;;5.85;2.80;;;1.90;95.00;;;;;;2089977;28;20045;-92
2021/12/09 04:22:41;;;;;;;4.75;2.50;;;1.90;95.00;;;;;;2098978;28;20009;-92
2021/12/09 04:23:41;;;;;;;6.32;3.10;;;1.90;95.00;;;;;;2090972;28;20030;-91
2021/12/09 04:24:42;;;;;;;4.53;2.60;;;1.80;95.00;;;;;;2082475;28;20089;-92
2021/12/09 04:25:43;;;;;;;6.28;2.90;;;1.80;95.00;;;;;;2097783;28;20037;-92
2021/12/09 04:26:46;;;;;;;4.85;2.78;;;1.90;95.10;;;;;;2086479;28;20069;-92
2021/12/09 04:27:48;;;;;;;5.85;2.90;;;1.80;95.10;;;;;;2081106;28;20632;-92
2021/12/09 04:28:49;;;;;;;4.82;2.80;;;1.80;95.10;;;;;;2081224;28;20026;-92
2021/12/09 04:29:50;;;;;;;6.03;2.60;;;1.80;95.10;;;;;;2080511;28;20120;-92
2021/12/09 04:30:50;;;;;;;6.63;3.00;;;1.80;95.10;;;;;;2075237;28;20533;-93
2021/12/09 04:31:52;;;;;;;4.43;2.70;;;1.80;95.10;;;;;;2080622;28;20034;-92
2021/12/09 04:32:53;;;;;;;5.55;2.80;;;1.80;95.10;;;;;;2081650;28;20504;-92
2021/12/09 04:33:54;;;;;;;4.85;2.50;;;1.70;95.10;;;;;;2081799;28;20024;-90
2021/12/09 04:34:56;;;;;;;5.45;2.53;;;1.70;95.10;;;;;;2080872;28;20036;-91
2021/12/09 04:35:58;;;;;;;4.15;2.63;;;1.70;95.10;;;;;;2072190;28;20030;-91
2021/12/09 04:36:59;;;;;;;5.20;2.90;;;1.70;95.10;;;;;;2071528;28;20030;-91
2021/12/09 04:38:01;;;;;;;4.80;2.65;;;1.70;95.10;;;;;;2061194;28;20049;-91
2021/12/09 04:39:04;;;;;;;4.63;2.75;;;1.70;95.10;;;;;;2065323;28;20117;-92
2021/12/09 04:40:07;;;;;;;5.50;2.90;;;1.70;95.10;;;;;;2067129;28;20083;-92
2021/12/09 04:41:08;;;;;;;5.25;3.00;;;1.70;95.10;;;;;;2079831;28;20116;-91
2021/12/09 04:42:10;;;;;;;5.00;2.70;;;1.70;95.10;;;;;;2073379;28;20056;-91
2021/12/09 04:43:11;;;;;;;5.80;2.60;;;1.70;95.10;;;;;;2072477;28;20030;-92
2021/12/09 04:44:11;;;;;;;5.85;2.83;;;1.60;95.10;;;;;;2089106;28;20032;-91
2021/12/09 04:45:12;;;;;;;6.15;2.58;;;1.60;95.10;;;;;;2088425;28;20025;-90
2021/12/09 04:46:14;;;;;;;5.78;2.72;;;1.60;95.10;;;;;;2088943;28;20033;-92
2021/12/09 04:47:14;;;;;;;6.75;2.50;;;1.60;95.10;;;;;;2080807;28;20041;-91
2021/12/09 04:48:15;;;;;;;4.82;2.90;;;1.60;95.10;;;;;;2072123;28;20479;-92
2021/12/09 04:49:16;;;;;;;6.65;2.78;;;1.60;95.40;;;;;;2073224;28;20030;-92
2021/12/09 04:50:17;;;;;;;5.47;2.72;;;1.60;95.10;;;;;;2082031;28;20242;-92
2021/12/09 04:51:17;;;;;;;5.55;2.50;;;1.60;95.10;;;;;;2080110;28;20033;-91
2021/12/09 04:52:18;;;;;;;4.15;2.42;;;1.60;95.10;;;;;;2074604;28;20551;-91
2021/12/09 04:53:19;;;;;;;5.43;2.58;;;1.60;95.10;;;;;;2072591;28;20530;-92
2021/12/09 04:54:20;;;;;;;6.30;2.70;;;1.60;95.10;;;;;;2079154;28;20036;-93
2021/12/09 04:55:21;;;;;;;6.97;2.60;;;1.60;95.10;;;;;;2088679;28;20120;-91
2021/12/09 04:56:22;;;;;;;4.25;2.25;;;1.60;95.10;;;;;;2085583;28;20018;-93
2021/12/09 04:57:23;;;;;;;4.35;2.45;;;1.60;95.10;;;;;;2088733;28;21979;-91
2021/12/09 04:58:24;;;;;;;4.95;2.47;;;1.60;95.10;;;;;;2080951;28;20018;-91
2021/12/09 04:59:25;;;;;;;7.18;2.65;;;1.60;95.10;;;;;;2086920;28;20057;-91
2021/12/09 05:00:28;;;;;;;5.13;2.50;;;1.60;95.10;;;;;;2085161;28;20026;-91
2021/12/09 05:01:29;;;;;;;4.68;2.22;;;1.60;95.10;;;;;;2075467;28;20064;-92
2021/12/09 05:03:05;;;;;;;4.63;2.47;;;1.60;95.10;;;;;;2082860;28;20030;-92
2021/12/09 05:03:57;;;;;;;6.18;2.70;;;1.60;95.10;;;;;;2081039;28;20045;-92
2021/12/09 05:04:57;;;;;;;5.40;2.70;;;1.60;95.10;;;;;;2074354;28;20038;-92
2021/12/09 05:05:58;;;;;;;5.45;2.72;;;1.60;95.10;;;;;;2076990;28;20029;-92
2021/12/09 05:06:58;;;;;;;6.43;2.80;;;1.60;95.10;;;;;;2075095;28;20042;-93
2021/12/09 05:08:00;;;;;;;4.80;2.35;;;1.60;95.10;;;;;;2064646;28;20150;-92
2021/12/09 05:09:08;;;;;;;5.68;2.90;;;1.60;95.10;;;;;;2064256;28;20065;-92
2021/12/09 05:10:10;;;;;;;6.05;2.70;;;1.60;95.20;;;;;;2085061;28;20025;-92
2021/12/09 05:11:28;;;;;;;5.13;2.67;;;1.60;95.10;;;;;;2078399;28;20032;-92
2021/12/09 05:12:29;;;;;;;5.18;2.80;;;1.60;95.10;;;;;;2074375;28;20050;-93
2021/12/09 05:13:32;;;;;;;5.38;2.88;;;1.70;95.10;;;;;;2067024;28;20373;-93
2021/12/09 05:14:33;;;;;;;7.53;2.90;;;1.70;95.10;;;;;;2073331;28;20029;-92
2021/12/09 05:15:33;;;;;;;5.93;2.65;;;1.60;95.10;;;;;;2071679;28;20041;-92
2021/12/09 05:16:34;;;;;;;5.07;2.55;;;1.70;95.10;;;;;;2064851;28;20400;-91
2021/12/09 05:17:35;;;;;;;8.20;3.10;;;1.60;95.10;;;;;;2072652;28;20499;-91
2021/12/09 05:18:39;;;;;;;6.40;2.72;;;1.70;95.10;;;;;;2064757;28;20501;-91
2021/12/09 05:19:39;;;;;;;5.75;2.60;;;1.60;95.10;;;;;;2063643;28;20030;-91
2021/12/09 05:20:42;;;;;;;4.45;2.63;;;1.60;95.10;;;;;;2072398;28;20076;-91
2021/12/09 05:21:43;;;;;;;5.80;2.72;;;1.60;95.10;;;;;;2081691;28;20030;-92
2021/12/09 05:22:44;;;;;;;4.65;2.50;;;1.60;95.00;;;;;;2080220;28;20030;-91
2021/12/09 05:23:44;;;;;;;4.65;2.70;;;1.60;95.10;;;;;;2062495;28;20113;-91
2021/12/09 05:24:49;;;;;;;5.05;2.63;;;1.60;95.10;;;;;;2065132;28;20018;-90
2021/12/09 05:25:50;;;;;;;5.93;2.90;;;1.60;95.10;;;;;;2076547;28;20041;-91
2021/12/09 05:26:54;;;;;;;6.18;2.50;;;1.60;95.10;;;;;;2086154;28;20029;-91